Time;durP1;ratioP1;P1;durP2;ratioP2;P2;SDS_P1;SDS_P2;PMS_P1;PMS_P2;Temp;Humidity;BMP_temperature;BMP_pressure;BME280_temperature;BME280_humidity;BME280_pressure;Samples;Min_cycle;Max_cycle;Signal;HPM_P1;HPM_P2
2022/06/24 00:01:39;;;;;;;;;6.80;5.00;;;;;-149.35;100.00;64108.03;5014093;28;45344;-50
2022/06/24 00:04:04;;;;;;;;;5.60;5.60;;;;;-149.35;100.00;64108.03;4997626;28;45639;-48
2022/06/24 00:06:43;;;;;;;;;10.50;10.50;;;;;-149.35;100.00;64108.03;5014978;28;46192;-48
2022/06/24 00:09:09;;;;;;;;;8.00;6.40;;;;;-149.35;100.00;64108.03;5014871;28;45408;-48
2022/06/24 00:11:34;;;;;;;;;3.00;3.00;;;;;-149.35;100.00;64108.03;4994275;28;45443;-47
2022/06/24 00:14:10;;;;;;;;;7.50;6.25;;;;;-149.35;100.00;64108.03;4995574;28;45513;-51
2022/06/24 00:16:59;;;;;;;;;5.00;5.00;;;;;-149.35;100.00;64108.03;4995383;28;46540;-44
2022/06/24 00:19:25;;;;;;;;;6.00;5.40;;;;;-149.35;100.00;64108.03;4995149;28;45358;-48
2022/06/24 00:22:07;;;;;;;;;4.75;4.75;;;;;-149.35;100.00;64108.03;4995206;28;45263;-51
2022/06/24 00:24:33;;;;;;;;;5.40;5.40;;;;;-149.35;100.00;64108.03;4995598;28;45311;-50
2022/06/24 00:26:59;;;;;;;;;5.40;4.40;;;;;-149.35;100.00;64108.03;4995097;28;45849;-49
2022/06/24 00:29:26;;;;;;;;;3.50;3.50;;;;;-149.35;100.00;64108.03;4993628;28;45459;-49
2022/06/24 00:32:07;;;;;;;;;4.00;4.00;;;;;-149.35;100.00;64108.03;4995064;28;45401;-47
2022/06/24 00:34:37;;;;;;;;;4.80;4.80;;;;;-149.35;100.00;64108.03;4995131;28;45441;-48
2022/06/24 00:37:26;;;;;;;;;6.00;4.20;;;;;-149.35;100.00;64108.03;5010094;28;45700;-49
2022/06/24 00:39:54;;;;;;;;;6.00;6.00;;;;;-149.35;100.00;64108.03;4994979;28;45344;-52
2022/06/24 00:42:19;;;;;;;;;5.00;5.00;;;;;-149.35;100.00;64108.03;4993628;28;45259;-49
2022/06/24 00:45:07;;;;;;;;;3.25;3.25;;;;;-149.35;100.00;64108.03;5010830;28;45562;-51
2022/06/24 00:47:32;;;;;;;;;6.00;6.00;;;;;-149.35;100.00;64108.03;4996669;28;46402;-48
2022/06/24 00:49:58;;;;;;;;;5.00;5.00;;;;;-149.35;100.00;64108.03;4998345;28;45294;-49
2022/06/24 00:52:24;;;;;;;;;4.00;4.00;;;;;-149.35;100.00;64108.03;5013442;28;45448;-49
2022/06/24 00:54:49;;;;;;;;;5.00;3.50;;;;;-149.35;100.00;64108.03;4997120;28;45501;-52
2022/06/24 00:57:15;;;;;;;;;3.50;3.50;;;;;-149.35;100.00;64108.03;4998101;28;45762;-50
2022/06/24 00:59:40;;;;;;;;;6.25;3.75;;;;;-149.35;100.00;64108.03;5013076;28;45425;-51
2022/06/24 01:02:06;;;;;;;;;5.00;5.00;;;;;-149.35;100.00;64108.03;4998625;28;45319;-50
2022/06/24 01:04:33;;;;;;;;;2.50;2.50;;;;;-149.35;100.00;64108.03;4998238;28;45374;-48
2022/06/24 01:06:58;;;;;;;;;4.00;3.40;;;;;-149.35;100.00;64108.03;5012968;28;45611;-49
2022/06/24 01:09:23;;;;;;;;;5.00;3.50;;;;;-149.35;100.00;64108.03;4997875;28;45384;-48
2022/06/24 01:11:49;;;;;;;;;4.00;3.00;;;;;-149.35;100.00;64108.03;5000125;28;45476;-49
2022/06/24 01:14:14;;;;;;;;;4.25;4.00;;;;;-149.35;100.00;64108.03;5017883;28;45271;-49
2022/06/24 01:16:40;;;;;;;;;3.25;3.25;;;;;-149.35;100.00;64108.03;5017544;28;45598;-49
2022/06/24 01:19:08;;;;;;;;;2.00;2.00;;;;;-149.35;100.00;64108.03;5016472;28;45670;-47
2022/06/24 01:21:37;;;;;;;;;4.00;4.00;;;;;-149.35;100.00;64108.03;5017657;28;45352;-45
2022/06/24 01:24:06;;;;;;;;;4.80;3.60;;;;;-149.35;100.00;64108.03;5017481;28;45404;-50
2022/06/24 01:26:31;;;;;;;;;5.00;4.00;;;;;-149.35;100.00;64108.03;5017490;28;45457;-53
2022/06/24 01:28:57;;;;;;;;;3.00;3.00;;;;;-149.35;100.00;64108.03;5016332;28;45382;-47
2022/06/24 01:31:22;;;;;;;;;5.25;3.00;;;;;-149.35;100.00;64108.03;5017564;28;45298;-48
2022/06/24 01:33:48;;;;;;;;;5.25;3.50;;;;;-149.35;100.00;64108.03;5017443;28;45380;-49
2022/06/24 01:36:13;;;;;;;;;4.00;4.00;;;;;-149.35;100.00;64108.03;5017258;28;45677;-48
2022/06/24 01:38:39;;;;;;;;;4.25;4.25;;;;;-149.35;100.00;64108.03;5017427;28;45377;-49
2022/06/24 01:41:04;;;;;;;;;4.00;4.00;;;;;-149.35;100.00;64108.03;5017094;28;45932;-49
2022/06/24 01:43:30;;;;;;;;;5.25;4.00;;;;;-149.35;100.00;64108.03;5016389;28;45795;-49
2022/06/24 01:45:56;;;;;;;;;4.40;4.40;;;;;-149.35;100.00;64108.03;5017233;28;45798;-54
2022/06/24 01:48:21;;;;;;;;;4.75;4.75;;;;;-149.35;100.00;64108.03;5017352;28;45747;-50
2022/06/24 01:50:47;;;;;;;;;3.00;3.00;;;;;-149.35;100.00;64108.03;5017390;28;45305;-43
2022/06/24 01:53:12;;;;;;;;;3.75;3.75;;;;;-149.35;100.00;64108.03;5017156;28;45606;-47
2022/06/24 01:55:38;;;;;;;;;4.50;4.50;;;;;-149.35;100.00;64108.03;5016947;28;45444;-50
2022/06/24 01:58:04;;;;;;;;;5.00;5.00;;;;;-149.35;100.00;64108.03;5016102;28;45429;-48
2022/06/24 02:00:30;;;;;;;;;3.80;3.00;;;;;-149.35;100.00;64108.03;5006350;28;45219;-48
2022/06/24 02:02:55;;;;;;;;;6.50;6.00;;;;;-149.35;100.00;64108.03;5016351;28;45282;-51
2022/06/24 02:05:21;;;;;;;;;5.25;4.25;;;;;-149.35;100.00;64108.03;4995491;28;46452;-50
2022/06/24 02:07:46;;;;;;;;;5.00;5.00;;;;;-149.35;100.00;64108.03;5015464;28;45342;-50
2022/06/24 02:15:40;;;;;;;;;4.00;4.00;;;;;-149.35;100.00;64108.03;5001994;28;45391;-46
2022/06/24 02:18:05;;;;;;;;;4.25;4.00;;;;;-149.35;100.00;64108.03;5016280;28;45331;-47
2022/06/24 02:20:31;;;;;;;;;4.25;2.00;;;;;-149.35;100.00;64108.03;5016619;28;45657;-52
2022/06/24 02:22:56;;;;;;;;;4.75;3.75;;;;;-149.35;100.00;64108.03;5017017;28;45358;-50
2022/06/24 02:25:22;;;;;;;;;2.00;1.00;;;;;-149.35;100.00;64108.03;5016594;28;46492;-51
2022/06/24 02:27:47;;;;;;;;;6.00;6.00;;;;;-149.35;100.00;64108.03;5016983;28;45332;-49
2022/06/24 02:30:13;;;;;;;;;6.50;6.50;;;;;-149.35;100.00;64108.03;5016658;28;45290;-45
2022/06/24 02:32:38;;;;;;;;;3.00;3.00;;;;;-149.35;100.00;64108.03;5017057;28;45548;-44
2022/06/24 02:35:04;;;;;;;;;5.00;4.25;;;;;-149.35;100.00;64108.03;5016363;28;45456;-42
2022/06/24 02:37:29;;;;;;;;;5.00;3.50;;;;;-149.35;100.00;64108.03;5016485;28;45368;-47
2022/06/24 02:39:55;;;;;;;;;6.00;6.00;;;;;-149.35;100.00;64108.03;5016536;28;45424;-48
2022/06/24 02:42:20;;;;;;;;;5.00;3.75;;;;;-149.35;100.00;64108.03;5016604;28;45559;-49
2022/06/24 02:44:46;;;;;;;;;3.25;3.25;;;;;-149.35;100.00;64108.03;5016196;28;45500;-51
2022/06/24 02:47:11;;;;;;;;;4.00;4.00;;;;;-149.35;100.00;64108.03;5016344;28;45318;-48
2022/06/24 02:49:37;;;;;;;;;6.00;4.00;;;;;-149.35;100.00;64108.03;5016348;28;45379;-48
2022/06/24 02:52:03;;;;;;;;;2.00;2.00;;;;;-149.35;100.00;64108.03;5016831;28;45370;-47
2022/06/24 02:54:28;;;;;;;;;2.25;2.25;;;;;-149.35;100.00;64108.03;5016021;28;46590;-45
2022/06/24 02:56:54;;;;;;;;;4.75;3.50;;;;;-149.35;100.00;64108.03;5016269;28;45263;-48
2022/06/24 02:59:21;;;;;;;;;3.75;3.75;;;;;-149.35;100.00;64108.03;5016501;28;45236;-49
2022/06/24 03:01:46;;;;;;;;;6.20;6.00;;;;;-149.35;100.00;64108.03;5016807;28;45538;-50
2022/06/24 03:04:11;;;;;;;;;4.00;2.25;;;;;-149.35;100.00;64108.03;5015983;28;46415;-50
2022/06/24 03:06:37;;;;;;;;;5.00;4.50;;;;;-149.35;100.00;64108.03;5016200;28;45465;-48
2022/06/24 03:09:03;;;;;;;;;3.50;3.50;;;;;-149.35;100.00;64108.03;5014892;28;45440;-48
2022/06/24 03:11:28;;;;;;;;;3.25;3.25;;;;;-149.35;100.00;64108.03;5016562;28;45207;-45
2022/06/24 03:13:53;;;;;;;;;4.00;4.00;;;;;-149.35;100.00;64108.03;5016066;28;45276;-48
2022/06/24 03:16:19;;;;;;;;;5.75;4.25;;;;;-149.35;100.00;64108.03;5016353;28;45472;-49
2022/06/24 03:18:44;;;;;;;;;8.25;7.00;;;;;-149.35;100.00;64108.03;5016010;28;45426;-49
2022/06/24 03:21:10;;;;;;;;;3.50;3.25;;;;;-149.35;100.00;64108.03;5016383;28;45547;-49
2022/06/24 03:23:35;;;;;;;;;2.50;2.50;;;;;-149.35;100.00;64108.03;5014129;28;45508;-46
2022/06/24 03:26:02;;;;;;;;;2.00;2.00;;;;;-149.35;100.00;64108.03;5015936;28;45429;-48
2022/06/24 03:28:27;;;;;;;;;3.80;3.80;;;;;-149.35;100.00;64108.03;5015986;28;45354;-45
2022/06/24 03:30:53;;;;;;;;;3.50;3.50;;;;;-149.35;100.00;64108.03;5015394;28;45646;-42
2022/06/24 03:33:18;;;;;;;;;4.50;4.00;;;;;-149.35;100.00;64108.03;5015738;28;45509;-48
2022/06/24 03:35:44;;;;;;;;;5.75;5.75;;;;;-149.35;100.00;64108.03;5014005;28;45472;-49
2022/06/24 03:38:09;;;;;;;;;6.00;4.25;;;;;-149.35;100.00;64108.03;5015985;28;45219;-51
2022/06/24 03:40:35;;;;;;;;;3.75;3.75;;;;;-149.35;100.00;64108.03;5015632;28;45124;-50
2022/06/24 03:43:00;;;;;;;;;4.75;3.25;;;;;-149.35;100.00;64108.03;5015582;28;45216;-52
2022/06/24 03:45:26;;;;;;;;;6.00;6.00;;;;;-149.35;100.00;64108.03;5015317;28;45295;-48
2022/06/24 03:47:51;;;;;;;;;5.75;4.25;;;;;-149.35;100.00;64108.03;5015437;28;45375;-47
2022/06/24 03:50:17;;;;;;;;;5.00;5.00;;;;;-149.35;100.00;64108.03;5014299;28;45624;-45
2022/06/24 03:52:42;;;;;;;;;1.25;1.25;;;;;-149.35;100.00;64108.03;5015104;28;46298;-49
2022/06/24 03:55:08;;;;;;;;;5.00;5.00;;;;;-149.35;100.00;64108.03;5015227;28;45469;-51
2022/06/24 03:57:33;;;;;;;;;3.75;3.75;;;;;-149.35;100.00;64108.03;5015480;28;45422;-49
2022/06/24 03:59:59;;;;;;;;;4.25;4.25;;;;;-149.35;100.00;64108.03;5015266;28;45390;-48
2022/06/24 04:02:24;;;;;;;;;4.00;4.00;;;;;-149.35;100.00;64108.03;5013841;28;46410;-47
2022/06/24 04:04:50;;;;;;;;;4.25;4.25;;;;;-149.35;100.00;64108.03;5014695;28;45366;-49
2022/06/24 04:07:15;;;;;;;;;5.75;5.75;;;;;-149.35;100.00;64108.03;5015725;28;45971;-47
2022/06/24 04:09:41;;;;;;;;;4.00;4.00;;;;;-149.35;100.00;64108.03;5015327;28;45473;-42
2022/06/24 04:12:06;;;;;;;;;5.00;5.00;;;;;-149.35;100.00;64108.03;5015045;28;46413;-45
2022/06/24 04:17:16;;;;;;;;;7.40;4.80;;;;;-149.35;100.00;64108.03;5015115;28;45453;-51
2022/06/24 04:19:41;;;;;;;;;6.00;6.00;;;;;-149.35;100.00;64108.03;5015456;28;45453;-53
2022/06/24 04:22:07;;;;;;;;;6.00;6.00;;;;;-149.35;100.00;64108.03;5018155;28;46876;-49
2022/06/24 04:24:32;;;;;;;;;5.00;5.00;;;;;-149.35;100.00;64108.03;5018585;28;45317;-49
2022/06/24 04:26:58;;;;;;;;;4.75;4.75;;;;;-149.35;100.00;64108.03;5018798;28;45382;-48
2022/06/24 04:29:23;;;;;;;;;4.25;4.25;;;;;-149.35;100.00;64108.03;5017875;28;45446;-45
2022/06/24 04:31:48;;;;;;;;;5.00;5.00;;;;;-149.35;100.00;64108.03;5018467;28;45452;-47
2022/06/24 04:34:14;;;;;;;;;4.00;4.00;;;;;-149.35;100.00;64108.03;5017455;28;45343;-51
2022/06/24 04:36:39;;;;;;;;;5.00;5.00;;;;;-149.35;100.00;64108.03;5018866;28;45595;-53
2022/06/24 04:39:05;;;;;;;;;7.00;4.25;;;;;-149.35;100.00;64108.03;5019181;28;45351;-50
2022/06/24 04:41:30;;;;;;;;;4.25;4.25;;;;;-149.35;100.00;64108.03;5018485;28;46299;-51
2022/06/24 04:43:56;;;;;;;;;7.50;5.50;;;;;-149.35;100.00;64108.03;5018563;28;45440;-46
2022/06/24 04:46:21;;;;;;;;;5.50;5.50;;;;;-149.35;100.00;64108.03;5018770;28;45440;-47
2022/06/24 04:48:47;;;;;;;;;4.00;4.00;;;;;-149.35;100.00;64108.03;5019076;28;45446;-42
2022/06/24 04:51:12;;;;;;;;;4.25;4.25;;;;;-149.35;100.00;64108.03;5018219;28;45360;-46
2022/06/24 04:53:38;;;;;;;;;6.00;6.00;;;;;-149.35;100.00;64108.03;5018533;28;45458;-46
2022/06/24 04:56:03;;;;;;;;;4.00;4.00;;;;;-149.35;100.00;64108.03;5018079;28;45486;-48
2022/06/24 04:58:29;;;;;;;;;7.25;5.00;;;;;-149.35;100.00;64108.03;5018326;28;45421;-47
2022/06/24 05:00:55;;;;;;;;;6.75;6.75;;;;;-149.35;100.00;64108.03;5018366;28;46109;-48
2022/06/24 05:03:20;;;;;;;;;5.00;5.00;;;;;-149.35;100.00;64108.03;5018046;28;45364;-49
2022/06/24 05:05:46;;;;;;;;;4.00;4.00;;;;;-149.35;100.00;64108.03;5018529;28;45405;-50
2022/06/24 05:08:11;;;;;;;;;5.50;5.50;;;;;-149.35;100.00;64108.03;5018119;28;45512;-45
2022/06/24 05:10:37;;;;;;;;;6.00;6.00;;;;;-149.35;100.00;64108.03;5018080;28;45527;-50
2022/06/24 05:13:02;;;;;;;;;5.75;4.75;;;;;-149.35;100.00;64108.03;5018022;28;45410;-51
2022/06/24 05:15:28;;;;;;;;;5.00;5.00;;;;;-149.35;100.00;64108.03;5018089;28;45367;-52
2022/06/24 05:17:53;;;;;;;;;5.50;3.50;;;;;-149.35;100.00;64108.03;5018479;28;45322;-51
2022/06/24 05:20:19;;;;;;;;;3.75;3.75;;;;;-149.35;100.00;64108.03;5017814;28;46587;-51
2022/06/24 05:22:45;;;;;;;;;4.00;4.00;;;;;-149.35;100.00;64108.03;5017926;28;45360;-48
2022/06/24 05:25:10;;;;;;;;;5.00;5.00;;;;;-149.35;100.00;64108.03;5017694;28;45362;-45
2022/06/24 05:27:36;;;;;;;;;5.75;5.75;;;;;-149.35;100.00;64108.03;5018187;28;45504;-48
2022/06/24 05:30:01;;;;;;;;;7.25;6.00;;;;;-149.35;100.00;64108.03;5017514;28;45832;-49
2022/06/24 05:32:27;;;;;;;;;6.75;6.75;;;;;-149.35;100.00;64108.03;5016224;28;45366;-49
2022/06/24 05:34:53;;;;;;;;;5.00;5.00;;;;;-149.35;100.00;64108.03;5017698;28;45464;-54
2022/06/24 05:37:19;;;;;;;;;4.00;4.00;;;;;-149.35;100.00;64108.03;5017929;28;45302;-52
2022/06/24 05:39:44;;;;;;;;;7.25;6.25;;;;;-149.35;100.00;64108.03;5017451;28;46649;-47
2022/06/24 05:42:10;;;;;;;;;7.50;6.25;;;;;-149.35;100.00;64108.03;5017380;28;45516;-45
2022/06/24 05:44:35;;;;;;;;;6.00;5.50;;;;;-149.35;100.00;64108.03;5015866;28;45446;-42
2022/06/24 05:47:01;;;;;;;;;6.00;5.00;;;;;-149.35;100.00;64108.03;5017831;28;45337;-47
2022/06/24 05:49:26;;;;;;;;;7.00;6.00;;;;;-149.35;100.00;64108.03;5017373;28;45976;-49
2022/06/24 05:51:52;;;;;;;;;7.00;7.00;;;;;-149.35;100.00;64108.03;5017401;28;45335;-49
2022/06/24 05:57:01;;;;;;;;;6.60;6.20;;;;;-149.35;100.00;64108.03;5017493;28;45706;-49
2022/06/24 05:59:27;;;;;;;;;8.00;6.75;;;;;-149.35;100.00;64108.03;5017367;28;45371;-50
2022/06/24 06:01:53;;;;;;;;;5.50;5.50;;;;;-149.35;100.00;64108.03;5017141;28;45324;-48
2022/06/24 06:04:18;;;;;;;;;4.75;4.75;;;;;-149.35;100.00;64108.03;4980782;28;45349;-47
2022/06/24 06:06:45;;;;;;;;;4.25;4.25;;;;;-149.35;100.00;64108.03;5017030;28;45547;-47
2022/06/24 06:09:11;;;;;;;;;6.40;5.40;;;;;-149.35;100.00;64108.03;5016878;28;47626;-50
2022/06/24 06:11:36;;;;;;;;;5.75;5.75;;;;;-149.35;100.00;64108.03;5016831;28;45243;-53
2022/06/24 06:14:02;;;;;;;;;7.00;4.50;;;;;-149.35;100.00;64108.03;5017090;28;45373;-50
2022/06/24 06:16:27;;;;;;;;;5.75;4.50;;;;;-149.35;100.00;64108.03;5017320;28;45861;-51
2022/06/24 06:18:53;;;;;;;;;7.00;6.00;;;;;-149.35;100.00;64108.03;5016694;28;45523;-49
2022/06/24 06:21:18;;;;;;;;;5.25;5.25;;;;;-149.35;100.00;64108.03;5015599;28;45377;-46
2022/06/24 06:23:44;;;;;;;;;4.00;4.00;;;;;-149.35;100.00;64108.03;5015253;28;45537;-48
2022/06/24 06:26:10;;;;;;;;;7.00;5.50;;;;;-149.35;100.00;64108.03;5016835;28;45374;-51
2022/06/24 06:28:36;;;;;;;;;5.40;4.60;;;;;-149.35;100.00;64108.03;5016921;28;45931;-51
2022/06/24 06:31:01;;;;;;;;;3.25;3.25;;;;;-149.35;100.00;64108.03;5015412;28;45492;-51
2022/06/24 06:33:27;;;;;;;;;5.75;5.75;;;;;-149.35;100.00;64108.03;5016925;28;45342;-51
2022/06/24 06:36:06;;;;;;;;;6.00;5.25;;;;;-149.35;100.00;64108.03;5016797;28;45215;-49
2022/06/24 06:38:32;;;;;;;;;6.60;6.00;;;;;-149.35;100.00;64108.03;5015714;28;46898;-49
2022/06/24 06:40:58;;;;;;;;;5.25;4.75;;;;;-149.35;100.00;64108.03;5016687;28;45966;-52
2022/06/24 06:43:23;;;;;;;;;4.20;4.20;;;;;-149.35;100.00;64108.03;5016230;28;45310;-50
2022/06/24 06:45:49;;;;;;;;;4.00;4.00;;;;;-149.35;100.00;64108.03;5016459;28;45607;-46
2022/06/24 06:48:14;;;;;;;;;3.50;3.50;;;;;-149.35;100.00;64108.03;5016746;28;46405;-48
2022/06/24 06:50:40;;;;;;;;;7.50;6.00;;;;;-149.35;100.00;64108.03;5016408;28;45356;-51
2022/06/24 06:53:05;;;;;;;;;8.00;5.75;;;;;-149.35;100.00;64108.03;5016367;28;45756;-50
2022/06/24 06:55:31;;;;;;;;;5.50;5.50;;;;;-149.35;100.00;64108.03;5015057;28;45380;-52
2022/06/24 06:57:56;;;;;;;;;5.00;5.00;;;;;-149.35;100.00;64108.03;5015976;28;46483;-54
2022/06/24 07:00:22;;;;;;;;;4.25;4.00;;;;;-149.35;100.00;64108.03;5016415;28;45390;-45
2022/06/24 07:02:47;;;;;;;;;8.00;7.00;;;;;-149.35;100.00;64108.03;5015376;28;45317;-47
2022/06/24 07:05:13;;;;;;;;;5.25;5.25;;;;;-149.35;100.00;64108.03;5016413;28;45393;-45
2022/06/24 07:07:38;;;;;;;;;5.50;5.50;;;;;-149.35;100.00;64108.03;5016090;28;46764;-47
2022/06/24 07:10:04;;;;;;;;;5.00;5.00;;;;;-149.35;100.00;64108.03;4987296;28;45343;-48
2022/06/24 07:12:30;;;;;;;;;4.60;4.60;;;;;-149.35;100.00;64108.03;5016366;28;45294;-49
2022/06/24 07:14:55;;;;;;;;;5.50;5.00;;;;;-149.35;100.00;64108.03;5016254;28;45593;-49
2022/06/24 07:17:21;;;;;;;;;6.75;4.00;;;;;-149.35;100.00;64108.03;5015720;28;45412;-48
2022/06/24 07:19:47;;;;;;;;;5.50;5.50;;;;;-149.35;100.00;64108.03;5016079;28;45180;-49
2022/06/24 07:22:13;;;;;;;;;4.80;4.80;;;;;-149.35;100.00;64108.03;5015719;28;45406;-46
2022/06/24 07:24:38;;;;;;;;;6.00;6.00;;;;;-149.35;100.00;64108.03;5016523;28;45853;-47
2022/06/24 07:27:05;;;;;;;;;6.00;5.75;;;;;-149.35;100.00;64108.03;5015662;28;46225;-50
2022/06/24 07:29:33;;;;;;;;;4.60;4.60;;;;;-149.35;100.00;64108.03;5016063;28;45424;-55
2022/06/24 07:31:59;;;;;;;;;5.00;5.00;;;;;-149.35;100.00;64108.03;5015912;28;45331;-46
2022/06/24 07:34:26;;;;;;;;;5.00;3.40;;;;;-149.35;100.00;64108.03;5014848;28;45283;-45
2022/06/24 07:36:52;;;;;;;;;4.00;3.40;;;;;-149.35;100.00;64108.03;4988379;28;46203;-49
2022/06/24 07:39:18;;;;;;;;;4.00;4.00;;;;;-149.35;100.00;64108.03;5009941;28;45461;-48
2022/06/24 07:41:43;;;;;;;;;8.50;6.50;;;;;-149.35;100.00;64108.03;5014054;28;45452;-51
2022/06/24 07:44:09;;;;;;;;;5.00;4.00;;;;;-149.35;100.00;64108.03;5014905;28;45533;-48
2022/06/24 07:46:34;;;;;;;;;3.00;3.00;;;;;-149.35;100.00;64108.03;5015122;28;45477;-48
2022/06/24 07:49:00;;;;;;;;;5.00;5.00;;;;;-149.35;100.00;64108.03;5015539;28;45441;-49
2022/06/24 07:51:25;;;;;;;;;5.00;5.00;;;;;-149.35;100.00;64108.03;5022864;28;45423;-48
2022/06/24 07:53:50;;;;;;;;;5.25;4.50;;;;;-149.35;100.00;64108.03;5018452;28;45551;-47
2022/06/24 07:59:00;;;;;;;;;4.80;4.80;;;;;-149.35;100.00;64108.03;5015395;28;45382;-52
2022/06/24 08:01:26;;;;;;;;;6.00;4.75;;;;;-149.35;100.00;64108.03;5015336;28;45382;-49
2022/06/24 08:03:51;;;;;;;;;8.00;6.50;;;;;-149.35;100.00;64108.03;5015846;28;45556;-55
2022/06/24 08:06:17;;;;;;;;;5.50;5.50;;;;;-149.35;100.00;64108.03;5013677;28;46532;-52
2022/06/24 08:08:42;;;;;;;;;6.50;5.25;;;;;-149.35;100.00;64108.03;5015367;28;45216;-50
2022/06/24 08:11:08;;;;;;;;;8.00;5.25;;;;;-149.35;100.00;64108.03;4993156;28;46069;-47
2022/06/24 08:13:33;;;;;;;;;5.75;5.75;;;;;-149.35;100.00;64108.03;5015468;28;45149;-44
2022/06/24 08:15:59;;;;;;;;;5.00;5.00;;;;;-149.35;100.00;64108.03;5013893;28;46386;-48
2022/06/24 08:18:25;;;;;;;;;6.00;6.00;;;;;-149.35;100.00;64108.03;5013884;28;45341;-47
2022/06/24 08:20:50;;;;;;;;;8.00;7.00;;;;;-149.35;100.00;64108.03;5015347;28;45260;-48
2022/06/24 08:23:16;;;;;;;;;8.00;8.00;;;;;-149.35;100.00;64108.03;5015629;28;45561;-50
2022/06/24 08:25:42;;;;;;;;;5.00;5.00;;;;;-149.35;100.00;64108.03;5013971;28;45431;-48
2022/06/24 08:28:07;;;;;;;;;4.75;4.25;;;;;-149.35;100.00;64108.03;5015205;28;45336;-47
2022/06/24 08:30:34;;;;;;;;;6.75;5.50;;;;;-149.35;100.00;64108.03;5015407;28;45906;-44
2022/06/24 08:33:00;;;;;;;;;5.00;5.00;;;;;-149.35;100.00;64108.03;5009319;28;47994;-51
2022/06/24 08:35:26;;;;;;;;;4.50;4.50;;;;;-149.35;100.00;64108.03;5011058;28;46457;-50
2022/06/24 08:37:51;;;;;;;;;4.00;4.00;;;;;-149.35;100.00;64108.03;4997719;28;45342;-50
2022/06/24 08:40:17;;;;;;;;;2.50;2.50;;;;;-149.35;100.00;64108.03;5013078;28;45290;-50
2022/06/24 08:42:43;;;;;;;;;5.00;5.00;;;;;-149.35;100.00;64108.03;4996298;28;45509;-51
2022/06/24 08:45:11;;;;;;;;;5.00;5.00;;;;;-149.35;100.00;64108.03;5014057;28;46552;-46
2022/06/24 08:47:37;;;;;;;;;4.40;4.40;;;;;-149.35;100.00;64108.03;5012307;28;45308;-50
2022/06/24 08:50:04;;;;;;;;;3.00;3.00;;;;;-149.35;100.00;64108.03;5014238;28;45555;-50
2022/06/24 08:52:29;;;;;;;;;5.40;4.40;;;;;-149.35;100.00;64108.03;5014166;28;45619;-53
2022/06/24 08:54:55;;;;;;;;;4.00;3.75;;;;;-149.35;100.00;64108.03;5013490;28;46104;-53
2022/06/24 08:57:20;;;;;;;;;5.75;4.75;;;;;-149.35;100.00;64108.03;5012929;28;45573;-54
2022/06/24 08:59:46;;;;;;;;;2.50;2.50;;;;;-149.35;100.00;64108.03;5014058;28;45354;-50
2022/06/24 09:02:15;;;;;;;;;2.20;2.20;;;;;-149.35;100.00;64108.03;5013851;28;45556;-50
2022/06/24 09:04:44;;;;;;;;;2.80;2.80;;;;;-149.35;100.00;64108.03;5013768;28;46689;-52
2022/06/24 09:07:25;;;;;;;;;4.00;4.00;;;;;-149.35;100.00;64108.03;5016230;28;45459;-52
2022/06/24 09:10:00;;;;;;;;;3.00;3.00;;;;;-149.35;100.00;64108.03;5017029;28;45350;-51
2022/06/24 09:12:30;;;;;;;;;3.40;3.40;;;;;-149.35;100.00;64108.03;5016636;28;45523;-53
2022/06/24 09:15:00;;;;;;;;;2.60;2.20;;;;;-149.35;100.00;64108.03;5016812;28;45775;-54
2022/06/24 09:17:31;;;;;;;;;2.20;2.20;;;;;-149.35;100.00;64108.03;5000446;28;45342;-48
2022/06/24 09:20:11;;;;;;;;;2.20;2.20;;;;;-149.35;100.00;64108.03;5017331;28;45369;-52
2022/06/24 09:22:36;;;;;;;;;4.00;3.00;;;;;-149.35;100.00;64108.03;5018047;28;45232;-51
2022/06/24 09:25:03;;;;;;;;;2.75;2.75;;;;;-149.35;100.00;64108.03;5017673;28;46451;-50
2022/06/24 09:27:29;;;;;;;;;2.00;2.00;;;;;-149.35;100.00;64108.03;5017623;28;45431;-49
2022/06/24 09:29:54;;;;;;;;;3.50;3.00;;;;;-149.35;100.00;64108.03;5016643;28;45393;-47
2022/06/24 09:32:19;;;;;;;;;3.00;2.00;;;;;-149.35;100.00;64108.03;5017914;28;45360;-46
2022/06/24 09:35:05;;;;;;;;;2.25;2.25;;;;;-149.35;100.00;64108.03;5017457;28;46529;-51
2022/06/24 09:37:35;;;;;;;;;2.20;2.20;;;;;-149.35;100.00;64108.03;5016388;28;45474;-47
2022/06/24 09:40:29;;;;;;;;;1.00;1.00;;;;;-149.35;100.00;64108.03;5017502;28;45369;-50
2022/06/24 09:43:01;;;;;;;;;2.20;2.20;;;;;-149.35;100.00;64108.03;5017546;28;45575;-52
2022/06/24 09:45:51;;;;;;;;;3.00;1.60;;;;;-149.35;100.00;64108.03;5017448;28;46622;-51
2022/06/24 09:48:37;;;;;;;;;2.00;2.00;;;;;-149.35;100.00;64108.03;5017375;28;45429;-51
2022/06/24 09:51:04;;;;;;;;;1.60;1.60;;;;;-149.35;100.00;64108.03;5017400;28;45322;-49
2022/06/24 09:53:32;;;;;;;;;4.60;2.80;;;;;-149.35;100.00;64108.03;5017433;28;45646;-46
2022/06/24 09:55:58;;;;;;;;;0.60;0.60;;;;;-149.35;100.00;64108.03;5017143;28;45469;-51
2022/06/24 09:58:23;;;;;;;;;2.00;2.00;;;;;-149.35;100.00;64108.03;5016036;28;45569;-49
2022/06/24 10:00:49;;;;;;;;;3.00;2.00;;;;;-149.35;100.00;64108.03;5017457;28;45209;-49
2022/06/24 10:03:15;;;;;;;;;1.00;1.00;;;;;-149.35;100.00;64108.03;5017456;28;45338;-48
2022/06/24 10:05:50;;;;;;;;;1.75;1.00;;;;;-149.35;100.00;64108.03;5017278;28;47440;-47
2022/06/24 10:08:18;;;;;;;;;1.20;1.20;;;;;-149.35;100.00;64108.03;5010520;28;45478;-47
2022/06/24 10:10:45;;;;;;;;;2.20;2.20;;;;;-149.35;100.00;64108.03;5016246;28;45436;-48
2022/06/24 10:13:18;;;;;;;;;2.00;2.00;;;;;-149.35;100.00;64108.03;5014877;28;45438;-46
2022/06/24 10:15:43;;;;;;;;;2.00;2.00;;;;;-149.35;100.00;64108.03;5015071;28;45469;-49
2022/06/24 10:18:09;;;;;;;;;2.00;2.00;;;;;-149.35;100.00;64108.03;5014122;28;45398;-49
2022/06/24 10:20:35;;;;;;;;;2.00;2.00;;;;;-149.35;100.00;64108.03;5014914;28;45405;-54
2022/06/24 10:23:00;;;;;;;;;2.75;2.00;;;;;-149.35;100.00;64108.03;5014207;28;45442;-50
2022/06/24 10:25:44;;;;;;;;;2.25;2.25;;;;;-149.35;100.00;64108.03;5015880;28;46281;-47
2022/06/24 10:28:10;;;;;;;;;3.40;3.00;;;;;-149.35;100.00;64108.03;5014616;28;45715;-43
2022/06/24 10:30:48;;;;;;;;;4.75;2.25;;;;;-149.35;100.00;64108.03;5015451;28;45780;-46
2022/06/24 10:33:21;;;;;;;;;2.00;1.00;;;;;-149.35;100.00;64108.03;5015880;28;45498;-45
2022/06/24 10:36:05;;;;;;;;;3.00;3.00;;;;;-149.35;100.00;64108.03;5015973;28;45682;-49
2022/06/24 10:38:41;;;;;;;;;2.00;2.00;;;;;-149.35;100.00;64108.03;5015171;28;45390;-51
2022/06/24 10:41:10;;;;;;;;;2.00;2.00;;;;;-149.35;100.00;64108.03;5015838;28;45563;-49
2022/06/24 10:43:43;;;;;;;;;3.00;2.60;;;;;-149.35;100.00;64108.03;5014540;28;45495;-49
2022/06/24 10:46:11;;;;;;;;;1.20;1.20;;;;;-149.35;100.00;64108.03;5015131;28;45458;-46
2022/06/24 10:48:43;;;;;;;;;2.00;2.00;;;;;-149.35;100.00;64108.03;5015182;28;45326;-48
2022/06/24 10:51:18;;;;;;;;;2.00;2.00;;;;;-149.35;100.00;64108.03;5015756;28;45339;-50
2022/06/24 10:54:02;;;;;;;;;3.00;3.00;;;;;-149.35;100.00;64108.03;5014438;28;45203;-50
2022/06/24 10:56:50;;;;;;;;;1.00;1.00;;;;;-149.35;100.00;64108.03;5014962;28;46127;-49
2022/06/24 10:59:19;;;;;;;;;1.00;1.00;;;;;-149.35;100.00;64108.03;5014848;28;45362;-51
2022/06/24 11:01:46;;;;;;;;;1.40;1.00;;;;;-149.35;100.00;64108.03;5014305;28;45426;-49
2022/06/24 11:04:18;;;;;;;;;3.00;1.00;;;;;-149.35;100.00;64108.03;5015624;28;45654;-45
2022/06/24 11:07:07;;;;;;;;;2.00;2.00;;;;;-149.35;100.00;64108.03;5016004;28;46690;-50
2022/06/24 11:09:32;;;;;;;;;1.60;0.80;;;;;-149.35;100.00;64108.03;4991950;28;45318;-48
2022/06/24 11:11:58;;;;;;;;;1.00;1.00;;;;;-149.35;100.00;64108.03;5002933;28;45362;-47
2022/06/24 11:14:26;;;;;;;;;1.00;1.00;;;;;-149.35;100.00;64108.03;5016553;28;45510;-46
2022/06/24 11:16:52;;;;;;;;;1.00;1.00;;;;;-149.35;100.00;64108.03;5016001;28;45744;-48
2022/06/24 11:19:18;;;;;;;;;2.00;1.00;;;;;-149.35;100.00;64108.03;5015912;28;45407;-52
2022/06/24 11:21:50;;;;;;;;;1.80;1.80;;;;;-149.35;100.00;64108.03;5015840;28;45912;-49
2022/06/24 11:24:19;;;;;;;;;1.40;1.40;;;;;-149.35;100.00;64108.03;5016232;28;45267;-46